sensor_id;sensor_type;location;lat;lon;timestamp;P1;durP1;ratioP1;P2;durP2;ratioP2
38318;SDS011;24121;53.536;10.224;2024-03-02T16:57:07;10.25;;;7.60;;
38318;SDS011;24121;53.536;10.224;2024-03-02T16:59:34;13.77;;;9.20;;
38318;SDS011;24121;53.536;10.224;2024-03-02T17:01:59;10.98;;;8.18;;
38318;SDS011;24121;53.536;10.224;2024-03-02T17:04:25;13.48;;;8.98;;
38318;SDS011;24121;53.536;10.224;2024-03-02T17:06:51;13.88;;;8.82;;
38318;SDS011;24121;53.536;10.224;2024-03-02T17:09:16;13.82;;;9.65;;
38318;SDS011;24121;53.536;10.224;2024-03-02T17:11:41;12.57;;;8.70;;
38318;SDS011;24121;53.536;10.224;2024-03-02T17:14:07;13.98;;;9.02;;
38318;SDS011;24121;53.536;10.224;2024-03-02T17:16:32;15.02;;;9.20;;
38318;SDS011;24121;53.536;10.224;2024-03-02T17:18:57;13.60;;;9.60;;
38318;SDS011;24121;53.536;10.224;2024-03-02T17:21:23;13.82;;;9.27;;
38318;SDS011;24121;53.536;10.224;2024-03-02T17:23:48;15.38;;;9.60;;
38318;SDS011;24121;53.536;10.224;2024-03-02T17:26:13;14.85;;;10.63;;
38318;SDS011;24121;53.536;10.224;2024-03-02T17:28:39;15.00;;;11.10;;
38318;SDS011;24121;53.536;10.224;2024-03-02T17:31:06;18.13;;;12.15;;
38318;SDS011;24121;53.536;10.224;2024-03-02T17:33:31;15.98;;;12.00;;
38318;SDS011;24121;53.536;10.224;2024-03-02T17:35:56;15.07;;;11.15;;
38318;SDS011;24121;53.536;10.224;2024-03-02T17:38:22;16.33;;;11.07;;
38318;SDS011;24121;53.536;10.224;2024-03-02T17:40:48;16.88;;;12.13;;
38318;SDS011;24121;53.536;10.224;2024-03-02T17:43:13;16.92;;;12.85;;
38318;SDS011;24121;53.536;10.224;2024-03-02T17:45:38;18.60;;;12.75;;
38318;SDS011;24121;53.536;10.224;2024-03-02T17:48:07;16.60;;;11.98;;
38318;SDS011;24121;53.536;10.224;2024-03-02T17:50:32;20.58;;;13.07;;
38318;SDS011;24121;53.536;10.224;2024-03-02T17:52:58;18.92;;;13.98;;
38318;SDS011;24121;53.536;10.224;2024-03-02T17:55:23;17.77;;;12.80;;
38318;SDS011;24121;53.536;10.224;2024-03-02T17:57:49;20.85;;;13.68;;
38318;SDS011;24121;53.536;10.224;2024-03-02T18:00:15;18.67;;;13.95;;
38318;SDS011;24121;53.536;10.224;2024-03-02T18:02:42;18.00;;;13.15;;
38318;SDS011;24121;53.536;10.224;2024-03-02T18:05:07;19.52;;;13.85;;
38318;SDS011;24121;53.536;10.224;2024-03-02T18:07:33;20.13;;;14.32;;
38318;SDS011;24121;53.536;10.224;2024-03-02T18:10:01;19.65;;;14.18;;
38318;SDS011;24121;53.536;10.224;2024-03-02T18:12:26;21.55;;;14.30;;
38318;SDS011;24121;53.536;10.224;2024-03-02T18:14:52;21.48;;;14.13;;
38318;SDS011;24121;53.536;10.224;2024-03-02T18:17:17;18.33;;;13.10;;
38318;SDS011;24121;53.536;10.224;2024-03-02T18:19:43;18.70;;;13.02;;
38318;SDS011;24121;53.536;10.224;2024-03-02T18:22:09;21.02;;;14.60;;
38318;SDS011;24121;53.536;10.224;2024-03-02T18:24:34;19.95;;;14.18;;
38318;SDS011;24121;53.536;10.224;2024-03-02T18:27:00;20.88;;;14.52;;
38318;SDS011;24121;53.536;10.224;2024-03-02T18:29:25;19.75;;;14.52;;
38318;SDS011;24121;53.536;10.224;2024-03-02T18:31:50;23.85;;;15.40;;
38318;SDS011;24121;53.536;10.224;2024-03-02T18:34:15;19.70;;;14.50;;
38318;SDS011;24121;53.536;10.224;2024-03-02T18:36:41;21.48;;;14.65;;
38318;SDS011;24121;53.536;10.224;2024-03-02T18:39:07;24.42;;;15.93;;
38318;SDS011;24121;53.536;10.224;2024-03-02T18:41:34;22.85;;;16.85;;
38318;SDS011;24121;53.536;10.224;2024-03-02T18:43:59;23.73;;;16.92;;
38318;SDS011;24121;53.536;10.224;2024-03-02T18:46:24;25.75;;;17.80;;
38318;SDS011;24121;53.536;10.224;2024-03-02T18:48:49;24.88;;;17.17;;
38318;SDS011;24121;53.536;10.224;2024-03-02T18:51:15;25.35;;;17.45;;
38318;SDS011;24121;53.536;10.224;2024-03-02T18:53:41;26.08;;;17.52;;
38318;SDS011;24121;53.536;10.224;2024-03-02T18:56:08;22.38;;;17.60;;
38318;SDS011;24121;53.536;10.224;2024-03-02T18:58:34;24.08;;;17.08;;
38318;SDS011;24121;53.536;10.224;2024-03-02T19:01:00;26.77;;;17.63;;
38318;SDS011;24121;53.536;10.224;2024-03-02T19:03:25;27.17;;;18.58;;
38318;SDS011;24121;53.536;10.224;2024-03-02T19:05:50;26.70;;;18.52;;
38318;SDS011;24121;53.536;10.224;2024-03-02T19:08:15;25.27;;;18.02;;
38318;SDS011;24121;53.536;10.224;2024-03-02T19:10:43;25.48;;;17.83;;
38318;SDS011;24121;53.536;10.224;2024-03-02T19:13:08;28.80;;;19.35;;
38318;SDS011;24121;53.536;10.224;2024-03-02T19:15:34;25.73;;;17.42;;
38318;SDS011;24121;53.536;10.224;2024-03-02T19:17:59;26.83;;;18.80;;
38318;SDS011;24121;53.536;10.224;2024-03-02T19:20:24;27.75;;;18.30;;
38318;SDS011;24121;53.536;10.224;2024-03-02T19:22:50;24.67;;;17.27;;
38318;SDS011;24121;53.536;10.224;2024-03-02T19:25:15;25.27;;;18.25;;
38318;SDS011;24121;53.536;10.224;2024-03-02T19:27:41;24.00;;;17.60;;
38318;SDS011;24121;53.536;10.224;2024-03-02T19:30:06;27.88;;;19.20;;
38318;SDS011;24121;53.536;10.224;2024-03-02T19:32:32;27.08;;;18.33;;
38318;SDS011;24121;53.536;10.224;2024-03-02T19:34:58;29.55;;;19.00;;
38318;SDS011;24121;53.536;10.224;2024-03-02T19:37:24;27.90;;;18.90;;
38318;SDS011;24121;53.536;10.224;2024-03-02T19:39:50;26.58;;;19.35;;
38318;SDS011;24121;53.536;10.224;2024-03-02T19:42:15;27.73;;;18.80;;
38318;SDS011;24121;53.536;10.224;2024-03-02T19:44:40;25.40;;;17.92;;
38318;SDS011;24121;53.536;10.224;2024-03-02T19:47:07;27.17;;;19.42;;
38318;SDS011;24121;53.536;10.224;2024-03-02T19:49:33;24.77;;;17.98;;
38318;SDS011;24121;53.536;10.224;2024-03-02T19:51:58;26.95;;;18.38;;
38318;SDS011;24121;53.536;10.224;2024-03-02T19:54:23;25.80;;;18.42;;
38318;SDS011;24121;53.536;10.224;2024-03-02T19:56:49;27.58;;;18.30;;
38318;SDS011;24121;53.536;10.224;2024-03-02T19:59:14;25.60;;;18.38;;
38318;SDS011;24121;53.536;10.224;2024-03-02T20:01:39;29.48;;;18.63;;
38318;SDS011;24121;53.536;10.224;2024-03-02T20:04:05;26.15;;;17.83;;
38318;SDS011;24121;53.536;10.224;2024-03-02T20:06:30;25.20;;;17.77;;
38318;SDS011;24121;53.536;10.224;2024-03-02T20:08:55;26.42;;;18.83;;
38318;SDS011;24121;53.536;10.224;2024-03-02T20:11:20;24.85;;;17.80;;
38318;SDS011;24121;53.536;10.224;2024-03-02T20:13:46;22.58;;;16.63;;
38318;SDS011;24121;53.536;10.224;2024-03-02T20:16:11;24.25;;;17.23;;
38318;SDS011;24121;53.536;10.224;2024-03-02T20:18:36;25.15;;;17.15;;
38318;SDS011;24121;53.536;10.224;2024-03-02T20:21:02;25.42;;;17.98;;
38318;SDS011;24121;53.536;10.224;2024-03-02T20:23:28;23.45;;;16.67;;
38318;SDS011;24121;53.536;10.224;2024-03-02T20:25:53;24.63;;;17.73;;
38318;SDS011;24121;53.536;10.224;2024-03-02T20:28:23;22.27;;;16.30;;
38318;SDS011;24121;53.536;10.224;2024-03-02T20:30:48;24.52;;;16.95;;
38318;SDS011;24121;53.536;10.224;2024-03-02T20:33:14;23.67;;;16.17;;
38318;SDS011;24121;53.536;10.224;2024-03-02T20:35:39;24.20;;;16.17;;
38318;SDS011;24121;53.536;10.224;2024-03-02T20:38:04;24.85;;;17.17;;
38318;SDS011;24121;53.536;10.224;2024-03-02T20:40:30;24.30;;;17.13;;
38318;SDS011;24121;53.536;10.224;2024-03-02T20:42:55;24.00;;;16.33;;
38318;SDS011;24121;53.536;10.224;2024-03-02T20:45:22;25.55;;;16.17;;
38318;SDS011;24121;53.536;10.224;2024-03-02T20:47:48;24.42;;;16.23;;
38318;SDS011;24121;53.536;10.224;2024-03-02T20:50:13;23.88;;;16.85;;
38318;SDS011;24121;53.536;10.224;2024-03-02T20:52:39;22.70;;;17.02;;
38318;SDS011;24121;53.536;10.224;2024-03-02T20:55:05;21.75;;;15.77;;
38318;SDS011;24121;53.536;10.224;2024-03-02T20:57:31;23.35;;;15.90;;
38318;SDS011;24121;53.536;10.224;2024-03-02T20:59:56;22.77;;;16.23;;
38318;SDS011;24121;53.536;10.224;2024-03-02T21:02:21;21.33;;;14.98;;
38318;SDS011;24121;53.536;10.224;2024-03-02T21:04:47;29.25;;;18.65;;
38318;SDS011;24121;53.536;10.224;2024-03-02T21:07:13;28.20;;;18.92;;
38318;SDS011;24121;53.536;10.224;2024-03-02T21:09:38;22.48;;;16.65;;
38318;SDS011;24121;53.536;10.224;2024-03-02T21:12:03;25.63;;;17.63;;
38318;SDS011;24121;53.536;10.224;2024-03-02T21:14:31;24.15;;;15.95;;
38318;SDS011;24121;53.536;10.224;2024-03-02T21:16:56;26.42;;;16.50;;
38318;SDS011;24121;53.536;10.224;2024-03-02T21:19:21;24.67;;;16.10;;
38318;SDS011;24121;53.536;10.224;2024-03-02T21:21:47;19.77;;;15.05;;
38318;SDS011;24121;53.536;10.224;2024-03-02T21:24:12;19.63;;;14.63;;
38318;SDS011;24121;53.536;10.224;2024-03-02T21:26:38;21.73;;;15.20;;
38318;SDS011;24121;53.536;10.224;2024-03-02T21:29:05;20.52;;;15.05;;
38318;SDS011;24121;53.536;10.224;2024-03-02T21:31:31;22.85;;;15.15;;
38318;SDS011;24121;53.536;10.224;2024-03-02T21:33:56;19.83;;;14.80;;
38318;SDS011;24121;53.536;10.224;2024-03-02T21:36:21;19.00;;;13.63;;
38318;SDS011;24121;53.536;10.224;2024-03-02T21:38:46;25.65;;;15.88;;
38318;SDS011;24121;53.536;10.224;2024-03-02T21:41:12;21.83;;;15.02;;
38318;SDS011;24121;53.536;10.224;2024-03-02T21:43:37;21.90;;;14.43;;
38318;SDS011;24121;53.536;10.224;2024-03-02T21:46:04;21.25;;;14.98;;
38318;SDS011;24121;53.536;10.224;2024-03-02T21:48:29;22.88;;;15.70;;
38318;SDS011;24121;53.536;10.224;2024-03-02T21:50:55;20.50;;;14.10;;
38318;SDS011;24121;53.536;10.224;2024-03-02T21:53:20;22.92;;;15.30;;
38318;SDS011;24121;53.536;10.224;2024-03-02T21:55:45;21.55;;;15.27;;
38318;SDS011;24121;53.536;10.224;2024-03-02T21:58:10;21.42;;;15.43;;
38318;SDS011;24121;53.536;10.224;2024-03-02T22:00:36;21.25;;;14.38;;
38318;SDS011;24121;53.536;10.224;2024-03-02T22:03:02;24.33;;;16.10;;
38318;SDS011;24121;53.536;10.224;2024-03-02T22:05:28;23.45;;;15.50;;
38318;SDS011;24121;53.536;10.224;2024-03-02T22:07:54;21.80;;;15.38;;
38318;SDS011;24121;53.536;10.224;2024-03-02T22:10:19;24.55;;;16.25;;
38318;SDS011;24121;53.536;10.224;2024-03-02T22:12:45;27.02;;;18.27;;
38318;SDS011;24121;53.536;10.224;2024-03-02T22:15:10;24.52;;;17.55;;
38318;SDS011;24121;53.536;10.224;2024-03-02T22:17:35;23.20;;;16.48;;
38318;SDS011;24121;53.536;10.224;2024-03-02T22:20:01;24.08;;;16.65;;
38318;SDS011;24121;53.536;10.224;2024-03-02T22:22:27;25.88;;;17.65;;
38318;SDS011;24121;53.536;10.224;2024-03-02T22:24:52;23.45;;;16.63;;
38318;SDS011;24121;53.536;10.224;2024-03-02T22:27:18;28.40;;;18.10;;
38318;SDS011;24121;53.536;10.224;2024-03-02T22:29:43;27.13;;;17.23;;
38318;SDS011;24121;53.536;10.224;2024-03-02T22:32:08;25.92;;;17.77;;
38318;SDS011;24121;53.536;10.224;2024-03-02T22:34:34;26.92;;;17.33;;
38318;SDS011;24121;53.536;10.224;2024-03-02T22:36:59;24.70;;;17.92;;
38318;SDS011;24121;53.536;10.224;2024-03-02T22:39:25;28.90;;;19.25;;
38318;SDS011;24121;53.536;10.224;2024-03-02T22:41:50;28.50;;;18.55;;
38318;SDS011;24121;53.536;10.224;2024-03-02T22:44:16;29.35;;;19.25;;
38318;SDS011;24121;53.536;10.224;2024-03-02T22:46:41;26.00;;;18.60;;
38318;SDS011;24121;53.536;10.224;2024-03-02T22:49:07;27.80;;;18.45;;
38318;SDS011;24121;53.536;10.224;2024-03-02T22:51:32;26.20;;;18.17;;
38318;SDS011;24121;53.536;10.224;2024-03-02T22:53:57;29.55;;;18.70;;
38318;SDS011;24121;53.536;10.224;2024-03-02T22:56:23;29.88;;;19.48;;
38318;SDS011;24121;53.536;10.224;2024-03-02T22:58:48;28.33;;;19.15;;
38318;SDS011;24121;53.536;10.224;2024-03-02T23:01:14;28.77;;;18.73;;
38318;SDS011;24121;53.536;10.224;2024-03-02T23:03:39;32.42;;;19.23;;
38318;SDS011;24121;53.536;10.224;2024-03-02T23:06:05;29.23;;;19.40;;
38318;SDS011;24121;53.536;10.224;2024-03-02T23:08:31;27.20;;;18.55;;
38318;SDS011;24121;53.536;10.224;2024-03-02T23:10:56;32.47;;;20.42;;
38318;SDS011;24121;53.536;10.224;2024-03-02T23:13:22;29.70;;;20.20;;
38318;SDS011;24121;53.536;10.224;2024-03-02T23:15:48;28.10;;;19.55;;
38318;SDS011;24121;53.536;10.224;2024-03-02T23:18:14;28.58;;;19.75;;
38318;SDS011;24121;53.536;10.224;2024-03-02T23:20:39;31.33;;;20.02;;
38318;SDS011;24121;53.536;10.224;2024-03-02T23:23:04;27.98;;;19.00;;
38318;SDS011;24121;53.536;10.224;2024-03-02T23:25:31;31.08;;;20.40;;
38318;SDS011;24121;53.536;10.224;2024-03-02T23:27:57;29.13;;;20.33;;
38318;SDS011;24121;53.536;10.224;2024-03-02T23:30:22;28.13;;;18.33;;
38318;SDS011;24121;53.536;10.224;2024-03-02T23:32:49;32.63;;;20.90;;
38318;SDS011;24121;53.536;10.224;2024-03-02T23:35:15;30.70;;;19.98;;
38318;SDS011;24121;53.536;10.224;2024-03-02T23:37:40;34.53;;;20.30;;
38318;SDS011;24121;53.536;10.224;2024-03-02T23:40:05;32.63;;;20.63;;
38318;SDS011;24121;53.536;10.224;2024-03-02T23:42:40;29.45;;;19.48;;
38318;SDS011;24121;53.536;10.224;2024-03-02T23:45:05;30.50;;;19.17;;
38318;SDS011;24121;53.536;10.224;2024-03-02T23:47:31;29.17;;;20.15;;
38318;SDS011;24121;53.536;10.224;2024-03-02T23:49:56;26.42;;;17.90;;
38318;SDS011;24121;53.536;10.224;2024-03-02T23:52:22;28.17;;;18.70;;
38318;SDS011;24121;53.536;10.224;2024-03-02T23:54:47;32.88;;;19.98;;
38318;SDS011;24121;53.536;10.224;2024-03-02T23:57:12;30.75;;;20.15;;
38318;SDS011;24121;53.536;10.224;2024-03-02T23:59:38;30.60;;;20.17;;
